sensor_id;sensor_type;location;lat;lon;timestamp;pressure;altitude;pressure_sealevel;temperature;humidity
40245;BME280;25963;42.694;23.600;2023-11-18T00:01:30;94438.31;;;8.29;100.00
40245;BME280;25963;42.694;23.600;2023-11-18T00:03:56;94464.78;;;8.27;100.00
40245;BME280;25963;42.694;23.600;2023-11-18T00:06:22;94434.31;;;8.08;100.00
40245;BME280;25963;42.694;23.600;2023-11-18T00:08:47;94422.19;;;7.88;100.00
40245;BME280;25963;42.694;23.600;2023-11-18T00:11:13;94411.03;;;8.11;100.00
40245;BME280;25963;42.694;23.600;2023-11-18T00:13:39;94423.84;;;8.01;100.00
40245;BME280;25963;42.694;23.600;2023-11-18T00:16:08;94430.84;;;7.89;100.00
40245;BME280;25963;42.694;23.600;2023-11-18T00:18:44;94431.28;;;8.04;100.00
40245;BME280;25963;42.694;23.600;2023-11-18T00:21:09;94428.16;;;7.95;100.00
40245;BME280;25963;42.694;23.600;2023-11-18T00:23:35;94423.13;;;7.94;100.00
40245;BME280;25963;42.694;23.600;2023-11-18T00:26:01;94457.13;;;7.89;100.00
40245;BME280;25963;42.694;23.600;2023-11-18T00:28:27;94446.78;;;7.94;100.00
40245;BME280;25963;42.694;23.600;2023-11-18T00:30:53;94462.63;;;7.81;100.00
40245;BME280;25963;42.694;23.600;2023-11-18T00:33:18;94462.72;;;7.74;100.00
40245;BME280;25963;42.694;23.600;2023-11-18T00:35:43;94465.84;;;7.64;100.00
40245;BME280;25963;42.694;23.600;2023-11-18T00:38:10;94443.34;;;7.93;100.00
40245;BME280;25963;42.694;23.600;2023-11-18T00:40:36;94424.19;;;7.68;100.00
40245;BME280;25963;42.694;23.600;2023-11-18T00:43:01;94432.56;;;7.58;100.00
40245;BME280;25963;42.694;23.600;2023-11-18T00:45:27;94424.78;;;7.70;100.00
40245;BME280;25963;42.694;23.600;2023-11-18T00:47:54;94425.94;;;7.74;100.00
40245;BME280;25963;42.694;23.600;2023-11-18T00:50:19;94420.59;;;7.87;100.00
40245;BME280;25963;42.694;23.600;2023-11-18T00:52:45;94432.00;;;7.74;100.00
40245;BME280;25963;42.694;23.600;2023-11-18T00:55:13;94429.03;;;7.89;100.00
40245;BME280;25963;42.694;23.600;2023-11-18T00:57:39;94444.19;;;7.69;100.00
40245;BME280;25963;42.694;23.600;2023-11-18T01:00:06;94442.13;;;7.71;100.00
40245;BME280;25963;42.694;23.600;2023-11-18T01:02:32;94448.41;;;7.45;100.00
40245;BME280;25963;42.694;23.600;2023-11-18T01:04:57;94437.13;;;7.44;100.00
40245;BME280;25963;42.694;23.600;2023-11-18T01:07:23;94462.47;;;7.57;100.00
40245;BME280;25963;42.694;23.600;2023-11-18T01:09:49;94448.97;;;7.28;100.00
40245;BME280;25963;42.694;23.600;2023-11-18T01:12:15;94452.78;;;7.58;100.00
40245;BME280;25963;42.694;23.600;2023-11-18T01:14:40;94464.16;;;7.45;100.00
40245;BME280;25963;42.694;23.600;2023-11-18T01:17:07;94460.59;;;7.39;100.00
40245;BME280;25963;42.694;23.600;2023-11-18T01:19:34;94444.47;;;7.36;100.00
40245;BME280;25963;42.694;23.600;2023-11-18T01:22:00;94450.47;;;7.43;100.00
40245;BME280;25963;42.694;23.600;2023-11-18T01:24:26;94464.34;;;7.50;100.00
40245;BME280;25963;42.694;23.600;2023-11-18T01:26:51;94466.84;;;7.38;100.00
40245;BME280;25963;42.694;23.600;2023-11-18T01:29:16;94482.22;;;7.35;100.00
40245;BME280;25963;42.694;23.600;2023-11-18T01:31:42;94478.59;;;7.04;100.00
40245;BME280;25963;42.694;23.600;2023-11-18T01:34:08;94468.09;;;6.72;100.00
40245;BME280;25963;42.694;23.600;2023-11-18T01:36:33;94457.16;;;7.14;100.00
40245;BME280;25963;42.694;23.600;2023-11-18T01:38:59;94471.34;;;7.06;100.00
40245;BME280;25963;42.694;23.600;2023-11-18T01:41:25;94460.44;;;7.02;100.00
40245;BME280;25963;42.694;23.600;2023-11-18T01:43:51;94469.63;;;6.86;100.00
40245;BME280;25963;42.694;23.600;2023-11-18T01:46:16;94467.25;;;6.85;100.00
40245;BME280;25963;42.694;23.600;2023-11-18T01:48:43;94483.50;;;6.94;100.00
40245;BME280;25963;42.694;23.600;2023-11-18T01:51:09;94455.06;;;6.97;100.00
40245;BME280;25963;42.694;23.600;2023-11-18T01:53:37;94454.41;;;6.70;100.00
40245;BME280;25963;42.694;23.600;2023-11-18T01:56:04;94451.94;;;6.75;100.00
40245;BME280;25963;42.694;23.600;2023-11-18T01:58:32;94458.84;;;6.70;100.00
40245;BME280;25963;42.694;23.600;2023-11-18T02:00:58;94461.34;;;6.90;100.00
40245;BME280;25963;42.694;23.600;2023-11-18T02:03:23;94465.69;;;6.71;100.00
40245;BME280;25963;42.694;23.600;2023-11-18T02:05:51;94459.81;;;6.75;100.00
40245;BME280;25963;42.694;23.600;2023-11-18T02:08:17;94481.19;;;6.72;100.00
40245;BME280;25963;42.694;23.600;2023-11-18T02:10:57;94458.25;;;6.68;100.00
40245;BME280;25963;42.694;23.600;2023-11-18T02:13:28;94474.56;;;6.70;100.00
40245;BME280;25963;42.694;23.600;2023-11-18T02:15:56;94482.59;;;6.75;100.00
40245;BME280;25963;42.694;23.600;2023-11-18T02:18:29;94463.16;;;6.51;100.00
40245;BME280;25963;42.694;23.600;2023-11-18T02:20:55;94466.13;;;6.61;100.00
40245;BME280;25963;42.694;23.600;2023-11-18T02:23:27;94461.31;;;6.58;100.00
40245;BME280;25963;42.694;23.600;2023-11-18T02:25:53;94458.47;;;6.14;100.00
40245;BME280;25963;42.694;23.600;2023-11-18T02:28:19;94477.25;;;6.56;100.00
40245;BME280;25963;42.694;23.600;2023-11-18T02:30:45;94497.47;;;6.49;100.00
40245;BME280;25963;42.694;23.600;2023-11-18T02:33:27;94474.38;;;6.13;100.00
40245;BME280;25963;42.694;23.600;2023-11-18T02:36:04;94472.41;;;6.08;100.00
40245;BME280;25963;42.694;23.600;2023-11-18T02:38:33;94482.00;;;6.34;100.00
40245;BME280;25963;42.694;23.600;2023-11-18T02:41:06;94469.19;;;6.06;100.00
40245;BME280;25963;42.694;23.600;2023-11-18T02:43:35;94471.13;;;6.24;100.00
40245;BME280;25963;42.694;23.600;2023-11-18T02:46:03;94464.38;;;5.97;100.00
40245;BME280;25963;42.694;23.600;2023-11-18T02:48:30;94479.25;;;6.03;100.00
40245;BME280;25963;42.694;23.600;2023-11-18T02:50:58;94482.91;;;6.02;100.00
40245;BME280;25963;42.694;23.600;2023-11-18T02:53:24;94485.09;;;6.11;100.00
40245;BME280;25963;42.694;23.600;2023-11-18T02:55:50;94497.59;;;6.03;100.00
40245;BME280;25963;42.694;23.600;2023-11-18T02:58:18;94493.59;;;5.93;100.00
40245;BME280;25963;42.694;23.600;2023-11-18T03:00:43;94489.53;;;6.04;100.00
40245;BME280;25963;42.694;23.600;2023-11-18T03:03:10;94480.66;;;5.92;100.00
40245;BME280;25963;42.694;23.600;2023-11-18T03:05:36;94489.94;;;5.88;100.00
40245;BME280;25963;42.694;23.600;2023-11-18T03:08:02;94485.53;;;5.75;100.00
40245;BME280;25963;42.694;23.600;2023-11-18T03:10:34;94486.31;;;5.82;100.00
40245;BME280;25963;42.694;23.600;2023-11-18T03:13:00;94514.13;;;5.97;100.00
40245;BME280;25963;42.694;23.600;2023-11-18T03:15:26;94494.38;;;5.81;100.00
40245;BME280;25963;42.694;23.600;2023-11-18T03:17:52;94518.34;;;6.04;100.00
40245;BME280;25963;42.694;23.600;2023-11-18T03:20:22;94527.81;;;5.99;100.00
40245;BME280;25963;42.694;23.600;2023-11-18T03:22:49;94527.00;;;5.78;100.00
40245;BME280;25963;42.694;23.600;2023-11-18T03:25:16;94530.03;;;5.48;100.00
40245;BME280;25963;42.694;23.600;2023-11-18T03:27:42;94506.47;;;5.48;100.00
40245;BME280;25963;42.694;23.600;2023-11-18T03:30:08;94509.31;;;5.54;100.00
40245;BME280;25963;42.694;23.600;2023-11-18T03:32:35;94517.94;;;5.21;100.00
40245;BME280;25963;42.694;23.600;2023-11-18T03:35:04;94511.69;;;5.29;100.00
40245;BME280;25963;42.694;23.600;2023-11-18T03:37:37;94526.63;;;5.48;100.00
40245;BME280;25963;42.694;23.600;2023-11-18T03:40:07;94512.72;;;5.28;100.00
40245;BME280;25963;42.694;23.600;2023-11-18T03:42:33;94530.22;;;5.40;100.00
40245;BME280;25963;42.694;23.600;2023-11-18T03:44:58;94515.53;;;5.33;100.00
40245;BME280;25963;42.694;23.600;2023-11-18T03:47:24;94519.75;;;5.27;100.00
40245;BME280;25963;42.694;23.600;2023-11-18T03:49:52;94513.31;;;5.16;100.00
40245;BME280;25963;42.694;23.600;2023-11-18T03:52:19;94548.72;;;5.32;100.00
40245;BME280;25963;42.694;23.600;2023-11-18T03:54:45;94532.03;;;5.26;100.00
40245;BME280;25963;42.694;23.600;2023-11-18T03:57:10;94511.09;;;5.20;100.00
40245;BME280;25963;42.694;23.600;2023-11-18T03:59:36;94509.47;;;5.32;100.00
40245;BME280;25963;42.694;23.600;2023-11-18T04:02:01;94532.66;;;5.48;100.00
40245;BME280;25963;42.694;23.600;2023-11-18T04:04:27;94529.81;;;5.37;100.00
40245;BME280;25963;42.694;23.600;2023-11-18T04:06:52;94532.81;;;5.14;100.00
40245;BME280;25963;42.694;23.600;2023-11-18T04:09:18;94535.63;;;5.25;100.00
40245;BME280;25963;42.694;23.600;2023-11-18T04:11:43;94526.16;;;4.98;100.00
40245;BME280;25963;42.694;23.600;2023-11-18T04:14:11;94528.41;;;5.21;100.00
40245;BME280;25963;42.694;23.600;2023-11-18T04:16:37;94547.31;;;5.30;100.00
40245;BME280;25963;42.694;23.600;2023-11-18T04:19:05;94537.41;;;5.05;100.00
40245;BME280;25963;42.694;23.600;2023-11-18T04:21:31;94535.22;;;5.09;100.00
40245;BME280;25963;42.694;23.600;2023-11-18T04:23:56;94542.25;;;5.08;100.00
40245;BME280;25963;42.694;23.600;2023-11-18T04:26:22;94539.44;;;5.10;100.00
40245;BME280;25963;42.694;23.600;2023-11-18T04:28:47;94551.50;;;5.11;100.00
40245;BME280;25963;42.694;23.600;2023-11-18T04:31:13;94555.75;;;5.12;100.00
40245;BME280;25963;42.694;23.600;2023-11-18T04:33:39;94570.16;;;4.94;100.00
40245;BME280;25963;42.694;23.600;2023-11-18T04:36:06;94565.97;;;5.07;100.00
40245;BME280;25963;42.694;23.600;2023-11-18T04:38:35;94580.47;;;5.16;100.00
40245;BME280;25963;42.694;23.600;2023-11-18T04:41:00;94569.00;;;5.03;100.00
40245;BME280;25963;42.694;23.600;2023-11-18T04:43:29;94564.31;;;4.92;100.00
40245;BME280;25963;42.694;23.600;2023-11-18T04:45:54;94575.78;;;4.85;100.00
40245;BME280;25963;42.694;23.600;2023-11-18T04:48:20;94569.16;;;4.89;100.00
40245;BME280;25963;42.694;23.600;2023-11-18T04:50:48;94556.09;;;4.95;100.00
40245;BME280;25963;42.694;23.600;2023-11-18T04:53:14;94555.63;;;4.78;100.00
40245;BME280;25963;42.694;23.600;2023-11-18T04:55:39;94552.97;;;4.58;100.00
40245;BME280;25963;42.694;23.600;2023-11-18T04:58:05;94552.59;;;4.68;100.00
40245;BME280;25963;42.694;23.600;2023-11-18T05:00:37;94557.25;;;4.73;100.00
40245;BME280;25963;42.694;23.600;2023-11-18T05:03:05;94567.94;;;4.85;100.00
40245;BME280;25963;42.694;23.600;2023-11-18T05:05:38;94566.91;;;4.79;100.00
40245;BME280;25963;42.694;23.600;2023-11-18T05:08:07;94577.88;;;4.61;100.00
40245;BME280;25963;42.694;23.600;2023-11-18T05:10:34;94574.50;;;4.67;100.00
40245;BME280;25963;42.694;23.600;2023-11-18T05:13:00;94569.94;;;4.83;100.00
40245;BME280;25963;42.694;23.600;2023-11-18T05:15:26;94549.00;;;4.76;100.00
40245;BME280;25963;42.694;23.600;2023-11-18T05:17:52;94549.00;;;4.76;100.00
40245;BME280;25963;42.694;23.600;2023-11-18T05:20:19;94549.34;;;4.66;100.00
40245;BME280;25963;42.694;23.600;2023-11-18T05:22:44;94557.25;;;4.73;100.00
40245;BME280;25963;42.694;23.600;2023-11-18T05:25:10;94542.31;;;4.60;100.00
40245;BME280;25963;42.694;23.600;2023-11-18T05:27:35;94555.03;;;4.76;100.00
40245;BME280;25963;42.694;23.600;2023-11-18T05:30:02;94564.22;;;4.66;100.00
40245;BME280;25963;42.694;23.600;2023-11-18T05:32:28;94541.75;;;4.71;100.00
40245;BME280;25963;42.694;23.600;2023-11-18T05:34:54;94561.25;;;4.75;100.00
40245;BME280;25963;42.694;23.600;2023-11-18T05:37:21;94546.88;;;4.51;100.00
40245;BME280;25963;42.694;23.600;2023-11-18T05:39:46;94552.09;;;4.51;100.00
40245;BME280;25963;42.694;23.600;2023-11-18T05:42:14;94552.50;;;4.48;100.00
40245;BME280;25963;42.694;23.600;2023-11-18T05:44:40;94556.13;;;4.47;100.00
40245;BME280;25963;42.694;23.600;2023-11-18T05:47:08;94555.34;;;4.53;100.00
40245;BME280;25963;42.694;23.600;2023-11-18T05:49:34;94546.88;;;4.51;100.00
40245;BME280;25963;42.694;23.600;2023-11-18T05:51:59;94533.03;;;4.57;100.00
40245;BME280;25963;42.694;23.600;2023-11-18T05:54:25;94536.03;;;4.48;100.00
40245;BME280;25963;42.694;23.600;2023-11-18T05:56:52;94524.22;;;4.58;100.00
40245;BME280;25963;42.694;23.600;2023-11-18T05:59:19;94531.59;;;4.48;100.00
40245;BME280;25963;42.694;23.600;2023-11-18T06:01:45;94539.66;;;4.47;100.00
40245;BME280;25963;42.694;23.600;2023-11-18T06:04:12;94550.63;;;4.35;100.00
40245;BME280;25963;42.694;23.600;2023-11-18T06:06:38;94569.69;;;4.29;100.00
40245;BME280;25963;42.694;23.600;2023-11-18T06:09:03;94566.34;;;4.42;100.00
40245;BME280;25963;42.694;23.600;2023-11-18T06:11:34;94569.22;;;4.61;100.00
40245;BME280;25963;42.694;23.600;2023-11-18T06:14:01;94565.16;;;4.45;100.00
40245;BME280;25963;42.694;23.600;2023-11-18T06:16:27;94569.81;;;4.49;100.00
40245;BME280;25963;42.694;23.600;2023-11-18T06:18:54;94588.91;;;4.56;100.00
40245;BME280;25963;42.694;23.600;2023-11-18T06:21:22;94592.53;;;4.55;100.00
40245;BME280;25963;42.694;23.600;2023-11-18T06:23:54;94600.22;;;4.64;100.00
40245;BME280;25963;42.694;23.600;2023-11-18T06:26:20;94598.59;;;4.63;100.00
40245;BME280;25963;42.694;23.600;2023-11-18T06:28:47;94623.13;;;4.33;100.00
40245;BME280;25963;42.694;23.600;2023-11-18T06:31:15;94623.09;;;4.62;100.00
40245;BME280;25963;42.694;23.600;2023-11-18T06:33:46;94619.63;;;4.54;100.00
40245;BME280;25963;42.694;23.600;2023-11-18T06:36:19;94618.13;;;4.67;100.00
40245;BME280;25963;42.694;23.600;2023-11-18T06:38:52;94626.94;;;4.66;100.00
40245;BME280;25963;42.694;23.600;2023-11-18T06:41:19;94621.25;;;4.55;100.00
40245;BME280;25963;42.694;23.600;2023-11-18T06:43:45;94639.22;;;4.72;100.00
40245;BME280;25963;42.694;23.600;2023-11-18T06:48:51;94622.81;;;4.85;100.00
40245;BME280;25963;42.694;23.600;2023-11-18T06:51:25;94620.66;;;5.08;100.00
40245;BME280;25963;42.694;23.600;2023-11-18T06:53:54;94629.44;;;4.87;100.00
40245;BME280;25963;42.694;23.600;2023-11-18T06:56:20;94620.41;;;4.90;100.00
40245;BME280;25963;42.694;23.600;2023-11-18T06:58:45;94622.75;;;4.78;100.00
40245;BME280;25963;42.694;23.600;2023-11-18T07:01:14;94620.66;;;5.01;100.00
40245;BME280;25963;42.694;23.600;2023-11-18T07:03:44;94597.81;;;4.69;100.00
40245;BME280;25963;42.694;23.600;2023-11-18T07:06:10;94602.66;;;4.78;100.00
40245;BME280;25963;42.694;23.600;2023-11-18T07:08:39;94614.16;;;4.84;100.00
40245;BME280;25963;42.694;23.600;2023-11-18T07:11:05;94609.41;;;5.14;100.00
40245;BME280;25963;42.694;23.600;2023-11-18T07:13:34;94621.31;;;5.17;100.00
40245;BME280;25963;42.694;23.600;2023-11-18T07:16:01;94595.25;;;4.82;100.00
40245;BME280;25963;42.694;23.600;2023-11-18T07:18:32;94617.47;;;5.13;100.00
40245;BME280;25963;42.694;23.600;2023-11-18T07:21:01;94604.09;;;4.81;100.00
40245;BME280;25963;42.694;23.600;2023-11-18T07:23:28;94614.63;;;5.01;100.00
40245;BME280;25963;42.694;23.600;2023-11-18T07:25:54;94614.88;;;5.13;100.00
40245;BME280;25963;42.694;23.600;2023-11-18T07:28:20;94609.31;;;4.81;100.00
40245;BME280;25963;42.694;23.600;2023-11-18T07:30:45;94597.38;;;5.20;100.00
40245;BME280;25963;42.694;23.600;2023-11-18T07:33:16;94613.41;;;4.97;100.00
40245;BME280;25963;42.694;23.600;2023-11-18T07:35:43;94603.38;;;5.00;100.00
40245;BME280;25963;42.694;23.600;2023-11-18T07:38:08;94608.38;;;4.95;100.00
40245;BME280;25963;42.694;23.600;2023-11-18T07:40:36;94611.72;;;4.76;100.00
40245;BME280;25963;42.694;23.600;2023-11-18T07:43:02;94615.38;;;4.88;100.00
40245;BME280;25963;42.694;23.600;2023-11-18T07:45:28;94634.13;;;4.98;100.00
40245;BME280;25963;42.694;23.600;2023-11-18T07:47:59;94618.91;;;5.15;100.00
40245;BME280;25963;42.694;23.600;2023-11-18T07:50:24;94640.88;;;5.34;100.00
40245;BME280;25963;42.694;23.600;2023-11-18T07:52:51;94636.78;;;5.12;100.00
40245;BME280;25963;42.694;23.600;2023-11-18T07:55:17;94622.72;;;5.13;100.00
40245;BME280;25963;42.694;23.600;2023-11-18T07:57:43;94620.50;;;5.10;100.00
40245;BME280;25963;42.694;23.600;2023-11-18T08:00:09;94618.44;;;5.05;100.00
40245;BME280;25963;42.694;23.600;2023-11-18T08:02:36;94643.31;;;5.42;100.00
40245;BME280;25963;42.694;23.600;2023-11-18T08:05:05;94624.16;;;5.35;100.00
40245;BME280;25963;42.694;23.600;2023-11-18T08:07:35;94623.19;;;5.43;100.00
40245;BME280;25963;42.694;23.600;2023-11-18T08:10:04;94624.28;;;5.00;100.00
40245;BME280;25963;42.694;23.600;2023-11-18T08:12:31;94645.78;;;5.02;100.00
40245;BME280;25963;42.694;23.600;2023-11-18T08:14:56;94642.44;;;5.15;100.00
40245;BME280;25963;42.694;23.600;2023-11-18T08:17:23;94632.75;;;5.09;100.00
40245;BME280;25963;42.694;23.600;2023-11-18T08:19:50;94630.44;;;4.86;100.00
40245;BME280;25963;42.694;23.600;2023-11-18T08:22:17;94639.84;;;4.74;100.00
40245;BME280;25963;42.694;23.600;2023-11-18T08:24:47;94644.13;;;4.88;100.00
40245;BME280;25963;42.694;23.600;2023-11-18T08:27:12;94640.13;;;4.99;100.00
40245;BME280;25963;42.694;23.600;2023-11-18T08:29:37;94641.34;;;4.96;100.00
40245;BME280;25963;42.694;23.600;2023-11-18T08:32:05;94648.78;;;4.99;100.00
40245;BME280;25963;42.694;23.600;2023-11-18T08:34:31;94650.31;;;4.80;100.00
40245;BME280;25963;42.694;23.600;2023-11-18T08:36:58;94664.25;;;4.94;100.00
40245;BME280;25963;42.694;23.600;2023-11-18T08:39:25;94661.56;;;4.81;100.00
40245;BME280;25963;42.694;23.600;2023-11-18T08:41:51;94645.38;;;4.57;100.00
40245;BME280;25963;42.694;23.600;2023-11-18T08:44:17;94680.91;;;4.87;100.00
40245;BME280;25963;42.694;23.600;2023-11-18T08:46:43;94670.84;;;4.84;100.00
40245;BME280;25963;42.694;23.600;2023-11-18T08:49:09;94669.59;;;4.73;100.00
40245;BME280;25963;42.694;23.600;2023-11-18T08:51:42;94653.38;;;4.49;100.00
40245;BME280;25963;42.694;23.600;2023-11-18T08:54:08;94653.66;;;4.33;100.00
40245;BME280;25963;42.694;23.600;2023-11-18T08:56:53;94660.72;;;4.39;100.00
40245;BME280;25963;42.694;23.600;2023-11-18T08:59:23;94664.22;;;4.46;100.00
40245;BME280;25963;42.694;23.600;2023-11-18T09:01:52;94660.59;;;4.47;100.00
40245;BME280;25963;42.694;23.600;2023-11-18T09:04:30;94644.47;;;4.37;100.00
40245;BME280;25963;42.694;23.600;2023-11-18T09:06:55;94655.41;;;4.54;100.00
40245;BME280;25963;42.694;23.600;2023-11-18T09:09:25;94652.56;;;4.49;100.00
40245;BME280;25963;42.694;23.600;2023-11-18T09:11:57;94661.28;;;4.63;100.00
40245;BME280;25963;42.694;23.600;2023-11-18T09:14:26;94649.78;;;4.57;100.00
40245;BME280;25963;42.694;23.600;2023-11-18T09:16:52;94658.69;;;4.69;100.00
40245;BME280;25963;42.694;23.600;2023-11-18T09:19:20;94660.72;;;4.39;100.00
40245;BME280;25963;42.694;23.600;2023-11-18T09:21:47;94654.25;;;4.63;100.00
40245;BME280;25963;42.694;23.600;2023-11-18T09:24:12;94638.38;;;4.58;100.00
40245;BME280;25963;42.694;23.600;2023-11-18T09:26:39;94631.19;;;4.39;100.00
40245;BME280;25963;42.694;23.600;2023-11-18T09:29:05;94630.03;;;4.41;100.00
40245;BME280;25963;42.694;23.600;2023-11-18T09:31:36;94633.06;;;4.51;100.00
40245;BME280;25963;42.694;23.600;2023-11-18T09:34:02;94634.84;;;4.44;100.00
40245;BME280;25963;42.694;23.600;2023-11-18T09:36:32;94624.50;;;4.23;100.00
40245;BME280;25963;42.694;23.600;2023-11-18T09:38:59;94621.97;;;4.43;100.00
40245;BME280;25963;42.694;23.600;2023-11-18T09:41:25;94619.44;;;4.49;100.00
40245;BME280;25963;42.694;23.600;2023-11-18T09:43:52;94635.09;;;4.49;100.00
40245;BME280;25963;42.694;23.600;2023-11-18T09:46:23;94620.97;;;4.37;100.00
40245;BME280;25963;42.694;23.600;2023-11-18T09:48:51;94624.16;;;4.39;100.00
40245;BME280;25963;42.694;23.600;2023-11-18T09:51:26;94634.47;;;4.47;100.00
40245;BME280;25963;42.694;23.600;2023-11-18T09:54:08;94639.56;;;4.27;100.00
40245;BME280;25963;42.694;23.600;2023-11-18T09:57:03;94622.03;;;4.49;100.00
40245;BME280;25963;42.694;23.600;2023-11-18T10:00:03;94637.00;;;4.34;100.00
40245;BME280;25963;42.694;23.600;2023-11-18T10:02:46;94636.53;;;4.52;100.00
40245;BME280;25963;42.694;23.600;2023-11-18T10:05:13;94628.31;;;4.27;100.00
40245;BME280;25963;42.694;23.600;2023-11-18T10:07:42;94638.47;;;4.43;100.00
40245;BME280;25963;42.694;23.600;2023-11-18T10:10:10;94637.66;;;4.43;100.00
40245;BME280;25963;42.694;23.600;2023-11-18T10:12:45;94641.91;;;4.50;100.00
40245;BME280;25963;42.694;23.600;2023-11-18T10:15:14;94634.72;;;4.52;100.00
40245;BME280;25963;42.694;23.600;2023-11-18T10:17:43;94628.25;;;4.48;100.00
40245;BME280;25963;42.694;23.600;2023-11-18T10:20:23;94645.19;;;4.59;100.00
40245;BME280;25963;42.694;23.600;2023-11-18T10:23:10;94622.31;;;4.68;100.00
40245;BME280;25963;42.694;23.600;2023-11-18T10:25:56;94653.81;;;4.60;99.59
40245;BME280;25963;42.694;23.600;2023-11-18T10:31:02;94644.97;;;4.61;99.55
40245;BME280;25963;42.694;23.600;2023-11-18T10:33:39;94651.22;;;4.60;100.00
40245;BME280;25963;42.694;23.600;2023-11-18T10:36:17;94648.31;;;4.76;100.00
40245;BME280;25963;42.694;23.600;2023-11-18T10:38:48;94636.59;;;4.72;98.50
40245;BME280;25963;42.694;23.600;2023-11-18T10:41:19;94617.72;;;4.70;98.65
40245;BME280;25963;42.694;23.600;2023-11-18T10:43:45;94633.47;;;4.90;99.05
40245;BME280;25963;42.694;23.600;2023-11-18T10:46:14;94637.38;;;4.66;98.61
40245;BME280;25963;42.694;23.600;2023-11-18T10:48:50;94611.25;;;4.66;98.37
40245;BME280;25963;42.694;23.600;2023-11-18T10:51:18;94624.16;;;4.39;98.05
40245;BME280;25963;42.694;23.600;2023-11-18T10:53:49;94615.56;;;4.45;99.42
40245;BME280;25963;42.694;23.600;2023-11-18T10:56:27;94620.72;;;4.67;99.45
40245;BME280;25963;42.694;23.600;2023-11-18T10:58:56;94634.53;;;4.61;97.61
40245;BME280;25963;42.694;23.600;2023-11-18T11:01:29;94622.06;;;4.21;98.80
40245;BME280;25963;42.694;23.600;2023-11-18T11:03:57;94650.91;;;4.76;97.25
40245;BME280;25963;42.694;23.600;2023-11-18T11:06:26;94637.53;;;4.57;96.69
40245;BME280;25963;42.694;23.600;2023-11-18T11:08:58;94628.47;;;4.53;97.43
40245;BME280;25963;42.694;23.600;2023-11-18T11:11:26;94626.09;;;4.58;96.55
40245;BME280;25963;42.694;23.600;2023-11-18T11:13:58;94633.47;;;4.48;97.73
40245;BME280;25963;42.694;23.600;2023-11-18T11:16:36;94623.47;;;4.52;98.03
40245;BME280;25963;42.694;23.600;2023-11-18T11:19:04;94626.25;;;4.50;98.00
40245;BME280;25963;42.694;23.600;2023-11-18T11:21:44;94627.16;;;4.36;98.33
40245;BME280;25963;42.694;23.600;2023-11-18T11:27:54;94626.56;;;4.34;98.04
40245;BME280;25963;42.694;23.600;2023-11-18T11:30:35;94633.31;;;4.56;99.64
40245;BME280;25963;42.694;23.600;2023-11-18T11:33:32;94638.63;;;4.70;98.84
40245;BME280;25963;42.694;23.600;2023-11-18T11:36:29;94618.13;;;4.67;99.25
40245;BME280;25963;42.694;23.600;2023-11-18T11:39:02;94612.53;;;4.42;98.24
40245;BME280;25963;42.694;23.600;2023-11-18T11:41:31;94601.44;;;4.33;98.82
40245;BME280;25963;42.694;23.600;2023-11-18T11:44:04;94595.84;;;4.36;99.25
40245;BME280;25963;42.694;23.600;2023-11-18T11:46:31;94610.34;;;4.45;99.74
40245;BME280;25963;42.694;23.600;2023-11-18T11:49:02;94616.03;;;4.55;99.18
40245;BME280;25963;42.694;23.600;2023-11-18T11:51:48;94617.38;;;4.45;97.42
40245;BME280;25963;42.694;23.600;2023-11-18T11:54:21;94618.69;;;4.69;98.05
40245;BME280;25963;42.694;23.600;2023-11-18T11:56:49;94630.84;;;4.90;97.87
40245;BME280;25963;42.694;23.600;2023-11-18T11:59:16;94610.69;;;4.70;97.62
40245;BME280;25963;42.694;23.600;2023-11-18T12:01:42;94632.41;;;4.77;96.99
40245;BME280;25963;42.694;23.600;2023-11-18T12:04:14;94637.09;;;4.47;97.21
40245;BME280;25963;42.694;23.600;2023-11-18T12:06:47;94634.91;;;4.57;96.85
40245;BME280;25963;42.694;23.600;2023-11-18T12:09:14;94643.41;;;4.66;97.52
40245;BME280;25963;42.694;23.600;2023-11-18T12:11:46;94641.84;;;4.72;97.41
40245;BME280;25963;42.694;23.600;2023-11-18T12:14:15;94651.44;;;4.65;94.92
40245;BME280;25963;42.694;23.600;2023-11-18T12:17:07;94646.25;;;4.71;96.10
40245;BME280;25963;42.694;23.600;2023-11-18T12:19:40;94639.75;;;4.61;96.67
40245;BME280;25963;42.694;23.600;2023-11-18T12:22:19;94604.03;;;4.68;97.15
40245;BME280;25963;42.694;23.600;2023-11-18T12:35:26;94624.81;;;4.83;95.84
40245;BME280;25963;42.694;23.600;2023-11-18T12:40:56;94634.56;;;5.09;96.67
40245;BME280;25963;42.694;23.600;2023-11-18T12:43:46;94632.72;;;5.02;97.19
40245;BME280;25963;42.694;23.600;2023-11-18T12:49:02;94612.53;;;4.76;95.68
40245;BME280;25963;42.694;23.600;2023-11-18T12:51:28;94619.13;;;4.72;97.78
40245;BME280;25963;42.694;23.600;2023-11-18T12:53:56;94622.19;;;4.83;97.55
40245;BME280;25963;42.694;23.600;2023-11-18T12:56:22;94613.59;;;4.95;96.18
40245;BME280;25963;42.694;23.600;2023-11-18T12:58:50;94604.94;;;4.95;96.38
40245;BME280;25963;42.694;23.600;2023-11-18T13:01:16;94628.94;;;5.12;96.19
40245;BME280;25963;42.694;23.600;2023-11-18T13:03:42;94619.75;;;4.81;95.68
40245;BME280;25963;42.694;23.600;2023-11-18T13:06:11;94638.63;;;5.18;96.85
40245;BME280;25963;42.694;23.600;2023-11-18T13:08:38;94638.41;;;5.13;95.15
40245;BME280;25963;42.694;23.600;2023-11-18T13:11:07;94620.66;;;5.01;94.56
40245;BME280;25963;42.694;23.600;2023-11-18T13:13:38;94639.19;;;5.07;96.56
40245;BME280;25963;42.694;23.600;2023-11-18T13:16:07;94641.97;;;4.98;96.66
40245;BME280;25963;42.694;23.600;2023-11-18T13:18:47;94636.34;;;5.08;97.32
40245;BME280;25963;42.694;23.600;2023-11-18T13:21:15;94653.06;;;5.14;97.98
40245;BME280;25963;42.694;23.600;2023-11-18T13:23:45;94650.56;;;4.92;97.59
40245;BME280;25963;42.694;23.600;2023-11-18T13:26:12;94660.72;;;5.15;98.26